Riverton, Minnesota
Current Conditions -  °F | °C
As of 10:53 PM on Monday 20 Oct 2014 (Local Time) from KBRD Reporting Station
Haze Haze  
Wind Chill: 38°   Ceiling: Unl
Heat Index: 38°   Visibility: 4mi
Dew Point: 38°   Wind: 3mph
Humidity: 100%   Direction: 50°NE
Pressure: 30.1"   Gusts: NA
Location:  46.4711°N, 94.0264°W
Report Text: KBRD 210353Z AUTO 05003KT 4SM BR CLR 03/03 A3010 RMK AO2 SLP204 T00330033
Loading
Personal Weather Stations






























Interactive Weather Map
Tropical Storm Tracking
New forecast layout! Learn more

10-Day Weather Forecast

Advertisements
Track Severe Weather on mobile